Time;durP1;ratioP1;P1;durP2;ratioP2;P2;SDS_P1;SDS_P2;PMS_P1;PMS_P2;Temp;Humidity;BMP_temperature;BMP_pressure;BME280_temperature;BME280_humidity;BME280_pressure;Samples;Min_cycle;Max_cycle;Signal;HPM_P1;HPM_P2
2022/04/25 00:00:21;;;;;;;17.48;9.68;;;;;;;7.60;84.58;100100.09;7396921;19;20440;-66
2022/04/25 00:02:50;;;;;;;17.42;10.02;;;;;;;7.55;84.98;100091.50;7395662;19;20045;-66
2022/04/25 00:05:18;;;;;;;18.42;9.13;;;;;;;7.51;84.99;100105.50;7397267;19;20366;-66
2022/04/25 00:07:46;;;;;;;16.83;10.85;;;;;;;7.48;85.13;100105.56;7397274;19;20027;-66
2022/04/25 00:10:14;;;;;;;15.25;10.05;;;;;;;7.44;84.82;100101.28;7395215;19;20031;-66
2022/04/25 00:12:45;;;;;;;15.75;9.65;;;;;;;7.42;85.01;100105.66;7395776;19;20010;-66
2022/04/25 00:15:13;;;;;;;21.27;10.98;;;;;;;7.40;84.74;100107.47;7396984;19;20435;-66
2022/04/25 00:17:42;;;;;;;17.73;9.98;;;;;;;7.35;86.11;100110.16;7395572;19;20018;-70
2022/04/25 00:20:11;;;;;;;15.82;9.93;;;;;;;7.34;85.74;100114.53;7397008;19;20039;-71
2022/04/25 00:22:39;;;;;;;18.73;10.65;;;;;;;7.31;85.74;100111.97;7395301;19;20028;-66
2022/04/25 00:25:09;;;;;;;20.45;11.15;;;;;;;7.29;85.51;100116.38;7394905;19;20023;-66
2022/04/25 00:27:37;;;;;;;19.35;11.75;;;;;;;7.26;85.63;100123.38;7397047;19;20019;-66
2022/04/25 00:30:09;;;;;;;14.65;10.43;;;;;;;7.22;85.67;100114.75;7394675;19;20022;-66
2022/04/25 00:32:37;;;;;;;19.27;11.10;;;;;;;7.18;85.71;100118.31;7394976;19;20035;-66
2022/04/25 00:35:06;;;;;;;21.40;11.73;;;;;;;7.13;86.24;100117.53;7394617;19;20022;-67
2022/04/25 00:37:34;;;;;;;18.02;11.48;;;;;;;7.10;85.82;100120.16;7395940;19;20015;-66
2022/04/25 00:40:02;;;;;;;19.02;12.27;;;;;;;7.05;85.99;100112.44;7396146;19;20407;-66
2022/04/25 00:42:31;;;;;;;23.13;11.88;;;;;;;7.00;85.89;100109.91;7394361;19;20038;-66
2022/04/25 00:45:01;;;;;;;19.15;11.40;;;;;;;6.98;86.08;100116.03;7394356;19;20022;-66
2022/04/25 00:47:33;;;;;;;15.25;11.50;;;;;;;6.92;85.91;100114.38;7394756;19;20015;-66
2022/04/25 00:50:01;;;;;;;18.70;11.70;;;;;;;6.90;85.54;100117.91;7395588;19;20039;-66
2022/04/25 00:52:29;;;;;;;16.67;11.85;;;;;;;6.86;85.97;100104.06;7393672;19;20490;-66
2022/04/25 00:54:59;;;;;;;20.55;11.98;;;;;;;6.83;85.58;100120.59;7394079;19;20022;-66
2022/04/25 00:57:27;;;;;;;17.23;11.30;;;;;;;6.80;85.78;100112.00;7393950;19;20018;-66
2022/04/25 00:59:58;;;;;;;21.15;13.50;;;;;;;6.76;86.06;100120.72;7395545;19;20019;-66
2022/04/25 01:02:27;;;;;;;17.80;12.10;;;;;;;6.73;85.79;100115.59;7395084;19;20027;-66
2022/04/25 01:04:59;;;;;;;19.63;12.43;;;;;;;6.72;85.67;100114.72;7396870;19;20085;-67
2022/04/25 01:07:27;;;;;;;20.77;12.52;;;;;;;6.69;85.75;100117.38;7396362;19;20477;-66
2022/04/25 01:09:56;;;;;;;16.27;11.65;;;;;;;6.67;85.56;100111.31;7394009;19;20510;-67
2022/04/25 01:12:24;;;;;;;17.67;12.20;;;;;;;6.63;85.79;100110.50;7394277;19;20015;-66
2022/04/25 01:14:58;;;;;;;17.10;11.70;;;;;;;6.62;85.69;100113.13;7396555;19;20427;-66
2022/04/25 01:17:26;;;;;;;19.98;11.88;;;;;;;6.59;85.82;100114.03;7393868;19;20015;-66
2022/04/25 01:19:55;;;;;;;17.23;11.82;;;;;;;6.57;86.02;100109.75;7395826;19;20031;-66
2022/04/25 01:22:33;;;;;;;19.10;12.85;;;;;;;6.53;85.68;100111.53;7393906;19;20065;-66
2022/04/25 01:27:45;;;;;;;17.45;11.75;;;;;;;6.49;86.41;100115.06;7394939;19;20007;-66
2022/04/25 01:30:13;;;;;;;24.33;11.70;;;;;;;6.47;85.71;100119.44;7392815;19;20015;-66
2022/04/25 01:32:41;;;;;;;18.95;12.05;;;;;;;6.46;85.71;100112.53;7393358;19;20043;-66
2022/04/25 01:35:10;;;;;;;15.23;11.65;;;;;;;6.43;85.77;100117.75;7392923;19;20018;-66
2022/04/25 01:37:39;;;;;;;20.48;12.57;;;;;;;6.40;85.73;100121.28;7394213;19;20530;-66
2022/04/25 01:40:11;;;;;;;20.40;13.07;;;;;;;6.39;85.93;100123.91;7392735;19;20028;-66
2022/04/25 01:42:39;;;;;;;21.85;12.50;;;;;;;6.38;85.73;100119.56;7393332;19;20031;-66
2022/04/25 01:45:08;;;;;;;19.90;13.10;;;;;;;6.38;85.47;100130.00;7397004;19;20022;-66
2022/04/25 01:47:37;;;;;;;21.05;13.10;;;;;;;6.34;85.98;100123.97;7401998;19;20039;-66
2022/04/25 01:50:06;;;;;;;20.02;13.32;;;;;;;6.37;85.73;100129.16;7401130;19;20018;-66
2022/04/25 01:52:35;;;;;;;19.40;12.85;;;;;;;6.36;85.90;100130.88;7398789;19;20035;-66
2022/04/25 01:55:05;;;;;;;20.30;13.00;;;;;;;6.37;85.34;100134.38;7401682;19;20035;-67
2022/04/25 01:57:35;;;;;;;18.85;12.35;;;;;;;6.36;85.81;100132.63;7398956;19;20022;-66
2022/04/25 02:00:04;;;;;;;20.83;13.50;;;;;;;6.35;85.52;100141.31;7401225;19;20602;-66
2022/04/25 02:02:32;;;;;;;20.27;12.75;;;;;;;6.31;85.56;100134.44;7398764;19;20035;-66
2022/04/25 02:05:00;;;;;;;21.55;13.20;;;;;;;6.33;85.58;100143.09;7401639;19;20022;-66
2022/04/25 02:07:28;;;;;;;23.15;14.23;;;;;;;6.33;85.40;100138.75;7401385;19;20029;-66
2022/04/25 02:09:56;;;;;;;19.42;12.52;;;;;;;6.32;85.48;100136.19;7400814;19;20035;-66
2022/04/25 02:12:25;;;;;;;17.60;13.35;;;;;;;6.32;85.23;100144.84;7400165;19;20022;-66
2022/04/25 02:14:55;;;;;;;20.05;13.68;;;;;;;6.33;85.28;100137.88;7399398;19;20014;-66
2022/04/25 02:17:24;;;;;;;19.17;14.05;;;;;;;6.33;85.32;100143.97;7399208;19;20007;-65
2022/04/25 02:19:52;;;;;;;20.52;13.93;;;;;;;6.34;84.83;100148.28;7401399;19;20019;-66
2022/04/25 02:22:20;;;;;;;22.83;15.13;;;;;;;6.34;84.80;100150.91;7399250;19;20014;-65
2022/04/25 02:24:49;;;;;;;23.15;14.60;;;;;;;6.35;84.54;100146.53;7398039;19;20015;-66
2022/04/25 02:27:24;;;;;;;21.83;14.88;;;;;;;6.38;84.53;100153.44;7400092;19;20494;-65
2022/04/25 02:29:56;;;;;;;22.63;15.25;;;;;;;6.37;84.30;100152.59;7397242;19;20507;-66
2022/04/25 02:32:27;;;;;;;20.45;15.30;;;;;;;6.36;84.25;100151.72;7398903;19;20015;-66
2022/04/25 02:34:56;;;;;;;23.67;16.13;;;;;;;6.35;83.94;100154.34;7399649;19;20384;-65
2022/04/25 02:37:25;;;;;;;20.50;15.32;;;;;;;6.36;83.84;100156.94;7399823;19;20029;-65
2022/04/25 02:39:54;;;;;;;21.42;15.80;;;;;;;6.33;83.67;100159.59;7399635;19;20481;-65
2022/04/25 02:42:22;;;;;;;21.67;16.40;;;;;;;6.33;83.57;100157.00;7398728;19;20014;-65
2022/04/25 02:44:50;;;;;;;21.52;16.00;;;;;;;6.33;83.65;100159.59;7397024;19;20395;-65
2022/04/25 02:47:18;;;;;;;26.52;16.58;;;;;;;6.31;83.38;100155.28;7397600;19;20033;-65
2022/04/25 02:49:49;;;;;;;22.55;15.90;;;;;;;6.29;83.53;100157.91;7399261;19;20489;-66
2022/04/25 02:52:17;;;;;;;21.23;16.70;;;;;;;6.29;83.61;100167.47;7397457;19;20023;-66
2022/04/25 02:54:45;;;;;;;19.27;15.75;;;;;;;6.28;83.40;100160.53;7398804;19;20022;-66
2022/04/25 02:57:13;;;;;;;21.75;15.80;;;;;;;6.27;83.35;100159.69;7395076;19;20035;-65
2022/04/25 02:59:41;;;;;;;20.17;15.43;;;;;;;6.26;83.40;100160.56;7397177;19;20015;-66
2022/04/25 03:02:10;;;;;;;25.90;15.45;;;;;;;6.26;83.17;100176.19;7397016;19;20023;-66
2022/04/25 03:04:38;;;;;;;24.13;16.67;;;;;;;6.25;83.26;100176.22;7399293;19;20019;-66
2022/04/25 03:07:09;;;;;;;23.52;17.00;;;;;;;6.24;83.14;100171.88;7399305;19;20022;-65
2022/04/25 03:09:37;;;;;;;27.52;17.52;;;;;;;6.22;83.43;100178.84;7399240;19;20019;-65
2022/04/25 03:12:06;;;;;;;20.25;16.25;;;;;;;6.21;83.37;100170.19;7396710;19;20427;-66
2022/04/25 03:14:34;;;;;;;24.38;17.73;;;;;;;6.19;83.56;100179.75;7396797;19;20014;-66
2022/04/25 03:17:02;;;;;;;24.17;17.52;;;;;;;6.16;83.60;100182.41;7397262;19;20031;-67
2022/04/25 03:19:30;;;;;;;26.15;17.90;;;;;;;6.14;83.30;100181.53;7398742;19;20035;-68
2022/04/25 03:22:01;;;;;;;24.80;18.10;;;;;;;6.11;83.62;100182.44;7398057;19;20032;-67
2022/04/25 03:24:32;;;;;;;25.38;18.23;;;;;;;6.11;83.64;100187.66;7396813;19;20024;-67
2022/04/25 03:27:01;;;;;;;23.15;18.02;;;;;;;6.07;83.71;100182.53;7396881;19;20010;-67
2022/04/25 03:29:29;;;;;;;24.52;17.30;;;;;;;6.06;83.83;100191.22;7396224;19;20039;-66
2022/04/25 03:31:57;;;;;;;25.45;16.63;;;;;;;6.03;83.86;100187.75;7396649;19;20015;-67
2022/04/25 03:34:25;;;;;;;28.35;17.73;;;;;;;6.00;83.93;100189.53;7397392;19;20470;-67
2022/04/25 03:36:54;;;;;;;25.70;18.35;;;;;;;5.98;83.87;100191.28;7398143;19;20026;-66
2022/04/25 03:39:22;;;;;;;27.08;17.65;;;;;;;5.95;83.90;100194.78;7397718;19;20111;-67
2022/04/25 03:41:53;;;;;;;29.08;18.70;;;;;;;5.95;83.91;100199.09;7397229;19;20035;-67
2022/04/25 03:44:21;;;;;;;27.48;18.27;;;;;;;5.92;83.99;100200.00;7395959;19;20427;-68
2022/04/25 03:46:50;;;;;;;26.75;18.63;;;;;;;5.91;84.13;100208.69;7397593;19;20031;-68
2022/04/25 03:49:18;;;;;;;27.88;19.73;;;;;;;5.92;83.89;100212.16;7397031;19;20477;-67
2022/04/25 03:51:46;;;;;;;27.75;19.67;;;;;;;5.91;84.08;100202.63;7395580;19;20014;-65
2022/04/25 03:57:09;;;;;;;27.88;18.05;;;;;;;5.91;83.87;100219.09;7396897;19;20090;-66
2022/04/25 03:57:10;;;;;;;25.08;19.70;;;;;;;5.89;84.14;100218.28;7398875;19;20022;-66
2022/04/25 03:59:38;;;;;;;27.95;19.98;;;;;;;5.85;84.09;100214.84;7397682;19;20082;-66
2022/04/25 04:02:07;;;;;;;31.63;19.42;;;;;;;5.85;84.02;100212.22;7395840;19;20022;-66
2022/04/25 04:04:35;;;;;;;28.45;19.17;;;;;;;5.84;84.00;100215.72;7394971;19;20385;-67
2022/04/25 04:07:04;;;;;;;28.30;19.25;;;;;;;5.84;84.25;100222.66;7395752;19;20022;-67
2022/04/25 04:12:27;;;;;;;30.42;19.92;;;;;;;5.81;84.25;100220.97;7393941;19;20038;-66
2022/04/25 04:14:55;;;;;;;25.35;19.77;;;;;;;5.82;84.16;100227.03;7397592;19;20022;-66
2022/04/25 04:17:30;;;;;;;27.45;19.42;;;;;;;5.81;84.08;100230.50;7394738;19;20014;-66
2022/04/25 04:19:58;;;;;;;26.73;19.42;;;;;;;5.81;84.16;100235.69;7396631;19;20035;-67
2022/04/25 04:22:29;;;;;;;26.55;19.27;;;;;;;5.81;83.99;100243.50;7395071;19;20131;-67
2022/04/25 04:25:01;;;;;;;27.85;20.25;;;;;;;5.82;84.17;100237.44;7396006;19;20552;-67
2022/04/25 04:27:32;;;;;;;27.80;20.02;;;;;;;5.83;83.87;100236.56;7395907;19;20018;-67
2022/04/25 04:30:01;;;;;;;31.40;20.52;;;;;;;5.84;83.68;100240.91;7394355;19;20014;-68
2022/04/25 04:32:31;;;;;;;26.70;19.83;;;;;;;5.88;83.61;100250.38;7393710;19;20022;-66
2022/04/25 04:34:59;;;;;;;25.13;19.13;;;;;;;5.87;83.76;100251.25;7393736;19;20025;-67
2022/04/25 04:37:28;;;;;;;24.95;18.98;;;;;;;5.87;83.51;100256.47;7394361;19;20019;-64
2022/04/25 04:40:28;;;;;;;28.40;18.80;;;;;;;5.87;83.71;100259.06;7395782;19;20032;-66
2022/04/25 04:42:48;;;;;;;26.73;18.98;;;;;;;5.88;83.58;100263.41;7394393;19;20018;-67
2022/04/25 04:45:16;;;;;;;26.85;19.00;;;;;;;5.87;83.82;100262.53;7394529;19;20038;-67
2022/04/25 04:47:44;;;;;;;27.75;19.15;;;;;;;5.86;83.67;100267.75;7394277;19;20022;-66
2022/04/25 04:50:15;;;;;;;27.10;20.45;;;;;;;5.84;83.65;100274.75;7394193;19;20530;-67
2022/04/25 04:52:44;;;;;;;27.42;19.90;;;;;;;5.84;83.48;100272.13;7394407;19;20019;-67
2022/04/25 04:55:13;;;;;;;23.83;18.83;;;;;;;5.83;83.50;100271.25;7395289;19;20406;-67
2022/04/25 04:57:41;;;;;;;27.00;18.92;;;;;;;5.84;83.48;100277.34;7393472;19;20018;-66
2022/04/25 05:00:16;;;;;;;25.45;19.85;;;;;;;5.85;83.52;100276.44;7393782;19;20010;-66
2022/04/25 05:02:45;;;;;;;24.02;19.63;;;;;;;5.84;83.45;100286.00;7393605;19;20024;-67
2022/04/25 05:05:14;;;;;;;27.13;19.23;;;;;;;5.85;83.29;100292.06;7392336;19;20043;-68
2022/04/25 05:07:43;;;;;;;25.58;18.33;;;;;;;5.81;83.53;100285.16;7391945;19;20018;-65
2022/04/25 05:10:33;;;;;;;28.20;19.00;;;;;;;5.84;83.42;100290.34;7394162;19;20015;-67
2022/04/25 05:13:01;;;;;;;27.27;20.13;;;;;;;5.80;83.39;100286.03;7392704;19;20018;-66
2022/04/25 05:15:32;;;;;;;26.70;19.17;;;;;;;5.82;83.24;100292.09;7393002;19;20035;-67
2022/04/25 05:18:08;;;;;;;27.10;18.92;;;;;;;5.80;83.13;100296.44;7392026;19;20108;-66
2022/04/25 05:20:43;;;;;;;29.00;19.63;;;;;;;5.79;83.37;100302.56;7393689;19;20014;-67
2022/04/25 05:23:11;;;;;;;24.27;19.42;;;;;;;5.74;83.28;100291.28;7392508;19;20014;-67
2022/04/25 05:25:40;;;;;;;29.83;20.88;;;;;;;5.74;83.37;100310.41;7392117;19;20015;-66
2022/04/25 05:28:09;;;;;;;28.45;19.13;;;;;;;5.74;83.21;100309.50;7391423;19;20018;-67
2022/04/25 05:30:40;;;;;;;25.60;19.08;;;;;;;5.73;83.45;100319.09;7392454;19;20027;-67
2022/04/25 05:33:09;;;;;;;27.70;18.92;;;;;;;5.74;83.29;100307.78;7393157;19;20018;-67
2022/04/25 05:35:38;;;;;;;22.42;18.25;;;;;;;5.76;83.45;100307.78;7392484;19;20011;-68
2022/04/25 05:38:10;;;;;;;25.05;19.67;;;;;;;5.77;83.08;100317.31;7392987;19;20018;-68
2022/04/25 05:40:38;;;;;;;27.88;19.63;;;;;;;5.78;82.98;100317.28;7395089;19;20011;-67
2022/04/25 05:43:08;;;;;;;30.02;20.63;;;;;;;5.80;83.14;100327.69;7393359;19;20021;-67
2022/04/25 05:45:41;;;;;;;26.60;20.50;;;;;;;5.84;82.97;100332.88;7394619;19;20025;-67
2022/04/25 05:51:58;;;;;;;29.88;20.58;;;;;;;5.89;82.87;100340.66;7392584;19;20037;-66
2022/04/25 05:53:38;;;;;;;27.33;19.60;;;;;;;5.91;82.50;100341.47;7394405;19;20018;-66
2022/04/25 05:56:06;;;;;;;26.55;19.77;;;;;;;5.92;82.50;100348.41;7393993;19;20019;-66
2022/04/25 05:58:34;;;;;;;29.33;20.50;;;;;;;5.91;82.61;100338.88;7394371;19;20032;-68
2022/04/25 06:01:05;;;;;;;29.25;20.30;;;;;;;5.90;82.36;100350.16;7392159;19;20014;-67
2022/04/25 06:03:33;;;;;;;27.80;21.67;;;;;;;5.90;82.37;100355.38;7393859;19;20032;-67
2022/04/25 06:06:02;;;;;;;26.20;19.98;;;;;;;5.92;82.46;100361.44;7393126;19;20022;-66
2022/04/25 06:08:30;;;;;;;25.58;19.42;;;;;;;5.94;82.13;100359.69;7393747;19;20027;-67
2022/04/25 06:10:58;;;;;;;27.90;20.98;;;;;;;5.94;82.19;100370.09;7391254;19;20018;-68
2022/04/25 06:13:26;;;;;;;29.35;20.83;;;;;;;5.93;82.11;100368.38;7390909;19;20035;-66
2022/04/25 06:15:54;;;;;;;31.92;21.73;;;;;;;5.91;81.99;100370.13;7391519;19;20031;-66
2022/04/25 06:18:25;;;;;;;30.95;21.00;;;;;;;5.92;82.19;100376.22;7390864;19;20351;-67
2022/04/25 06:20:53;;;;;;;27.50;20.23;;;;;;;5.90;81.86;100373.59;7391508;19;20040;-66
2022/04/25 06:23:21;;;;;;;30.85;22.10;;;;;;;5.92;81.96;100376.22;7391963;19;20039;-66
2022/04/25 06:25:49;;;;;;;27.63;20.90;;;;;;;5.95;82.11;100371.84;7393851;19;20018;-66
2022/04/25 06:28:18;;;;;;;31.60;20.67;;;;;;;5.98;82.00;100374.44;7392672;19;20027;-66
2022/04/25 06:30:46;;;;;;;28.50;20.20;;;;;;;5.98;81.69;100384.84;7396601;19;20039;-66
2022/04/25 06:33:14;;;;;;;29.90;21.40;;;;;;;5.98;81.57;100386.56;7397456;19;20018;-66
2022/04/25 06:35:45;;;;;;;32.35;20.40;;;;;;;5.94;81.73;100383.13;7397000;19;20031;-68
2022/04/25 06:38:15;;;;;;;27.63;21.15;;;;;;;5.96;81.62;100388.31;7398073;19;20046;-68
2022/04/25 06:40:43;;;;;;;33.65;22.98;;;;;;;5.98;81.52;100382.25;7401214;19;20018;-68
2022/04/25 06:43:13;;;;;;;28.58;20.35;;;;;;;6.03;81.56;100377.88;7396896;19;20388;-66
2022/04/25 06:45:42;;;;;;;26.30;19.65;;;;;;;6.08;81.41;100390.84;7399670;19;20018;-66
2022/04/25 06:48:10;;;;;;;27.42;21.05;;;;;;;6.13;81.29;100385.59;7397263;19;20037;-67
2022/04/25 06:50:38;;;;;;;26.58;20.83;;;;;;;6.17;81.08;100392.50;7399553;19;20031;-65
2022/04/25 06:53:09;;;;;;;26.90;20.05;;;;;;;6.24;81.21;100403.72;7397102;19;20435;-66
2022/04/25 06:55:37;;;;;;;27.02;22.23;;;;;;;6.28;80.92;100395.00;7396883;19;20018;-66
2022/04/25 06:58:06;;;;;;;27.75;20.95;;;;;;;6.30;80.68;100398.47;7396583;19;20022;-66
2022/04/25 07:00:35;;;;;;;30.05;21.75;;;;;;;6.29;80.76;100399.34;7398762;19;20500;-67
2022/04/25 07:03:04;;;;;;;26.80;20.33;;;;;;;6.33;80.53;100393.22;7397021;19;20035;-67
2022/04/25 07:05:32;;;;;;;27.10;21.10;;;;;;;6.38;80.37;100404.44;7399553;19;20018;-66
2022/04/25 07:08:00;;;;;;;30.25;20.95;;;;;;;6.38;80.00;100395.78;7398690;19;20442;-65
2022/04/25 07:10:31;;;;;;;28.48;21.80;;;;;;;6.33;80.20;100399.31;7398891;19;20035;-65
2022/04/25 07:12:59;;;;;;;26.88;20.27;;;;;;;6.34;80.21;100410.56;7396174;19;20502;-66
2022/04/25 07:15:29;;;;;;;25.15;20.17;;;;;;;6.34;80.38;100410.56;7397897;19;20006;-66
2022/04/25 07:18:00;;;;;;;26.17;20.58;;;;;;;6.36;80.39;100414.03;7395889;19;20034;-67
2022/04/25 07:20:28;;;;;;;28.23;20.48;;;;;;;6.40;80.10;100414.88;7396485;19;20018;-66
2022/04/25 07:31:01;;;;;;;24.33;19.05;;;;;;;6.62;79.81;100424.22;7399112;19;20007;-66
2022/04/25 07:33:30;;;;;;;29.52;19.75;;;;;;;6.68;79.72;100425.88;7395567;19;20022;-66
2022/04/25 07:35:58;;;;;;;22.80;18.90;;;;;;;6.72;79.43;100429.31;7397190;19;20463;-65
2022/04/25 07:38:27;;;;;;;21.60;17.80;;;;;;;6.77;79.36;100424.91;7397595;19;20014;-67
2022/04/25 07:40:57;;;;;;;25.48;19.60;;;;;;;6.83;79.16;100438.72;7396168;19;20029;-66
2022/04/25 07:43:25;;;;;;;25.60;19.92;;;;;;;6.89;79.37;100437.81;7394415;19;20032;-68
2022/04/25 07:45:54;;;;;;;24.13;19.23;;;;;;;6.90;78.85;100442.16;7396454;19;20022;-67
2022/04/25 07:48:22;;;;;;;25.20;18.98;;;;;;;6.90;78.86;100444.75;7395983;19;20082;-67
2022/04/25 07:50:50;;;;;;;29.75;19.45;;;;;;;6.88;78.60;100443.91;7397615;19;20017;-67
2022/04/25 07:53:19;;;;;;;26.17;18.77;;;;;;;6.88;78.76;100448.28;7395410;19;20035;-67
2022/04/25 07:55:47;;;;;;;27.95;18.90;;;;;;;6.90;78.64;100452.59;7397477;19;20031;-66
2022/04/25 07:58:17;;;;;;;25.90;19.10;;;;;;;6.94;78.59;100456.88;7395405;19;20391;-66
2022/04/25 08:00:46;;;;;;;26.63;19.50;;;;;;;6.95;78.63;100457.72;7397776;19;20014;-66
2022/04/25 08:03:15;;;;;;;23.63;18.48;;;;;;;7.00;78.29;100459.41;7395492;19;20082;-66
2022/04/25 08:05:43;;;;;;;24.95;18.20;;;;;;;7.06;78.23;100462.84;7396215;19;20351;-66
2022/04/25 08:08:11;;;;;;;25.02;17.95;;;;;;;7.12;78.04;100460.16;7395159;19;20022;-66
2022/04/25 08:10:39;;;;;;;21.98;17.92;;;;;;;7.20;78.13;100468.75;7394995;19;20042;-66
2022/04/25 08:18:32;;;;;;;22.92;17.65;;;;;;;7.57;77.71;100472.63;7394686;19;20018;-67
2022/04/25 08:21:00;;;;;;;25.02;16.90;;;;;;;7.68;76.79;100478.56;7394273;19;20404;-67
2022/04/25 08:23:28;;;;;;;25.08;16.52;;;;;;;7.80;76.71;100469.72;7393867;19;20054;-66
2022/04/25 08:25:56;;;;;;;22.75;16.73;;;;;;;7.92;76.75;100469.53;7394262;19;20018;-66
2022/04/25 08:28:25;;;;;;;23.02;17.70;;;;;;;8.07;76.14;100478.84;7396596;19;20014;-67
2022/04/25 08:30:56;;;;;;;19.52;16.38;;;;;;;8.17;75.85;100471.75;7396112;19;20014;-67
2022/04/25 08:33:24;;;;;;;24.60;17.35;;;;;;;8.26;75.58;100470.72;7393814;19;20039;-67
2022/04/25 08:35:52;;;;;;;22.92;16.05;;;;;;;8.36;75.29;100471.44;7394531;19;20031;-69
2022/04/25 08:38:20;;;;;;;28.13;17.90;;;;;;;8.46;74.88;100473.88;7395347;19;20014;-66
2022/04/25 08:40:51;;;;;;;24.67;17.63;;;;;;;8.54;74.40;100485.97;7393934;19;20018;-66
2022/04/25 08:43:20;;;;;;;24.65;18.15;;;;;;;8.58;73.49;100487.63;7394142;19;20022;-64
2022/04/25 08:45:48;;;;;;;23.52;17.95;;;;;;;8.61;73.82;100488.44;7393731;19;20390;-65
2022/04/25 08:48:24;;;;;;;23.45;17.23;;;;;;;8.66;73.23;100488.38;7394018;19;20023;-67
2022/04/25 08:50:53;;;;;;;22.92;18.65;;;;;;;8.70;73.11;100484.81;7396197;19;20046;-66
2022/04/25 08:53:23;;;;;;;24.77;18.48;;;;;;;8.77;73.09;100496.91;7393908;19;20067;-67
2022/04/25 08:55:54;;;;;;;25.00;18.02;;;;;;;8.82;72.69;100496.81;7395685;19;20028;-67
2022/04/25 08:58:24;;;;;;;24.52;18.85;;;;;;;8.87;72.71;100497.59;7395368;19;20030;-66
2022/04/25 09:00:52;;;;;;;18.70;16.70;;;;;;;8.93;72.74;100491.38;7393680;19;20023;-67
2022/04/25 09:03:24;;;;;;;20.60;15.27;;;;;;;8.99;71.87;100498.25;7393901;19;20426;-67
2022/04/25 09:05:52;;;;;;;18.33;14.23;;;;;;;8.99;72.11;100493.88;7395919;19;20025;-67
2022/04/25 09:08:21;;;;;;;17.35;13.43;;;;;;;9.12;71.91;100499.72;7393698;19;20032;-67
2022/04/25 09:10:50;;;;;;;19.50;14.07;;;;;;;9.22;71.74;100506.50;7393189;19;20384;-68
2022/04/25 09:13:19;;;;;;;16.05;13.27;;;;;;;9.34;71.31;100504.53;7393384;19;20039;-67
2022/04/25 09:15:47;;;;;;;13.93;11.07;;;;;;;9.44;70.79;100506.09;7393194;19;20037;-68
2022/04/25 09:18:16;;;;;;;17.08;12.30;;;;;;;9.54;70.50;100504.13;7393354;19;20015;-67
2022/04/25 09:20:46;;;;;;;14.15;11.43;;;;;;;9.62;69.99;100500.44;7394204;19;20423;-66
2022/04/25 09:23:24;;;;;;;13.82;11.32;;;;;;;9.71;69.02;100501.16;7393440;19;20036;-66
2022/04/25 09:26:19;;;;;;;12.90;10.27;;;;;;;9.78;68.54;100495.72;7394989;19;20028;-67
2022/04/25 09:28:49;;;;;;;15.80;11.05;;;;;;;9.84;69.06;100499.97;7393897;19;20044;-67
2022/04/25 09:31:17;;;;;;;14.20;10.80;;;;;;;9.87;68.64;100510.38;7392562;19;20018;-67
2022/04/25 09:33:46;;;;;;;13.55;10.75;;;;;;;9.93;68.81;100506.75;7392596;19;20011;-67
2022/04/25 09:36:17;;;;;;;14.68;10.35;;;;;;;9.98;67.51;100506.66;7391733;19;20506;-67
2022/04/25 09:38:46;;;;;;;15.88;11.52;;;;;;;10.01;68.56;100504.81;7392216;19;20023;-65
2022/04/25 09:41:18;;;;;;;14.18;10.68;;;;;;;10.04;68.46;100512.59;7392423;19;20015;-65
2022/04/25 09:43:47;;;;;;;15.27;11.77;;;;;;;10.05;68.27;100514.34;7394410;19;20042;-67
2022/04/25 09:46:16;;;;;;;14.10;10.07;;;;;;;10.12;68.23;100509.81;7391913;19;20018;-65
2022/04/25 09:49:03;;;;;;;17.58;10.55;;;;;;;10.23;67.69;100515.66;7391916;19;20023;-66
2022/04/25 09:51:34;;;;;;;14.88;9.52;;;;;;;10.33;67.78;100507.59;7392403;19;20030;-66
2022/04/25 09:54:04;;;;;;;14.73;9.80;;;;;;;10.41;67.61;100505.66;7392413;19;20025;-66
2022/04/25 09:56:34;;;;;;;12.15;8.57;;;;;;;10.52;67.15;100515.88;7391661;19;20011;-66
2022/04/25 09:59:05;;;;;;;14.15;8.57;;;;;;;10.64;66.79;100518.19;7391660;19;20019;-65
2022/04/25 10:01:34;;;;;;;9.15;8.10;;;;;;;10.78;66.26;100511.72;7391913;19;20018;-67
2022/04/25 10:04:03;;;;;;;11.23;7.57;;;;;;;10.91;65.76;100510.50;7392998;19;20443;-66
2022/04/25 10:06:36;;;;;;;14.30;8.35;;;;;;;11.06;64.66;100517.09;7397080;19;20036;-66
2022/04/25 10:09:06;;;;;;;10.63;8.00;;;;;;;11.22;65.28;100512.28;7398578;19;20022;-65
2022/04/25 10:11:37;;;;;;;10.75;7.50;;;;;;;11.40;64.62;100513.53;7400889;19;20018;-66
2022/04/25 10:14:06;;;;;;;8.45;7.60;;;;;;;11.59;63.95;100516.47;7399367;19;20022;-68
2022/04/25 10:16:35;;;;;;;15.00;8.43;;;;;;;11.70;63.60;100516.13;7398706;19;20018;-69
2022/04/25 10:19:03;;;;;;;11.02;7.88;;;;;;;11.77;62.94;100533.47;7397527;19;20027;-68
2022/04/25 10:21:33;;;;;;;10.10;7.47;;;;;;;11.82;63.20;100515.78;7397596;19;20038;-70
2022/04/25 10:24:04;;;;;;;9.18;7.82;;;;;;;11.84;62.36;100520.97;7397295;19;20035;-71
2022/04/25 10:26:32;;;;;;;9.52;7.47;;;;;;;11.84;62.53;100523.59;7400576;19;20372;-71
2022/04/25 10:29:08;;;;;;;9.63;7.70;;;;;;;11.83;61.97;100533.28;7399703;19;20474;-69
2022/04/25 10:31:41;;;;;;;10.73;8.20;;;;;;;11.84;62.28;100529.75;7399855;19;20018;-67
2022/04/25 10:34:10;;;;;;;9.80;7.35;;;;;;;11.83;61.79;100537.69;7397808;19;20042;-67
2022/04/25 10:36:50;;;;;;;9.80;7.00;;;;;;;11.83;61.96;100522.75;7396842;19;20014;-66
2022/04/25 10:39:24;;;;;;;9.45;7.32;;;;;;;11.87;61.92;100529.63;7397916;19;20018;-66
2022/04/25 10:44:54;;;;;;;11.20;7.45;;;;;;;11.89;60.34;100530.47;7399992;19;20010;-67
2022/04/25 10:47:24;;;;;;;12.35;7.95;;;;;;;11.93;61.02;100532.97;7396981;19;20505;-67
2022/04/25 10:50:11;;;;;;;11.50;8.15;;;;;;;11.93;60.31;100536.50;7397093;19;20553;-66
2022/04/25 10:52:56;;;;;;;8.30;7.35;;;;;;;11.83;60.32;100529.78;7397292;19;20015;-67
2022/04/25 10:56:09;;;;;;;9.10;6.75;;;;;;;11.76;60.88;100526.47;7399148;19;20010;-67
2022/04/25 10:58:37;;;;;;;8.30;6.47;;;;;;;11.79;61.05;100531.66;7396170;19;20082;-66
2022/04/25 11:01:05;;;;;;;9.48;6.60;;;;;;;11.82;61.02;100531.53;7397063;19;20019;-67
2022/04/25 11:03:35;;;;;;;12.25;8.07;;;;;;;11.93;60.81;100528.59;7399359;19;20026;-67
2022/04/25 11:06:08;;;;;;;8.98;6.47;;;;;;;12.04;60.49;100528.28;7398842;19;20028;-67
2022/04/25 11:08:52;;;;;;;7.72;6.07;;;;;;;12.12;58.01;100535.94;7399262;19;20018;-67
2022/04/25 11:11:24;;;;;;;6.75;5.47;;;;;;;12.18;58.90;100538.38;7398827;19;20017;-69
2022/04/25 11:14:11;;;;;;;10.27;6.85;;;;;;;12.28;59.31;100528.41;7395965;19;20014;-67
2022/04/25 11:16:40;;;;;;;8.10;5.03;;;;;;;12.44;59.69;100541.94;7395806;19;20031;-66
2022/04/25 11:19:22;;;;;;;10.25;6.40;;;;;;;12.60;58.55;100548.41;7394811;19;20015;-66
2022/04/25 11:21:55;;;;;;;7.32;5.63;;;;;;;12.69;58.49;100548.09;7395651;19;20127;-65
2022/04/25 11:24:38;;;;;;;10.43;6.50;;;;;;;12.64;56.64;100551.81;7398851;19;20038;-65
2022/04/25 11:27:14;;;;;;;7.57;6.13;;;;;;;12.67;57.56;100551.69;7397955;19;20022;-67
2022/04/25 11:29:47;;;;;;;8.07;6.00;;;;;;;12.66;57.92;100550.84;7397778;19;20029;-67
2022/04/25 11:32:30;;;;;;;6.22;5.32;;;;;;;12.82;57.73;100556.44;7397179;19;20086;-68
2022/04/25 11:35:02;;;;;;;7.72;6.00;;;;;;;13.00;56.63;100549.69;7394937;19;20033;-67
2022/04/25 11:37:31;;;;;;;7.30;5.20;;;;;;;13.23;57.24;100555.94;7394236;19;20019;-67
2022/04/25 11:40:01;;;;;;;9.15;5.18;;;;;;;13.49;56.29;100560.25;7397276;19;20018;-69
2022/04/25 11:42:37;;;;;;;7.35;5.40;;;;;;;13.65;53.85;100565.00;7394961;19;20513;-67
2022/04/25 11:45:07;;;;;;;6.65;4.82;;;;;;;13.67;54.35;100565.75;7394652;19;20388;-66
2022/04/25 11:47:36;;;;;;;6.35;5.00;;;;;;;13.65;54.37;100575.53;7397430;19;20430;-66
2022/04/25 11:50:06;;;;;;;5.65;4.43;;;;;;;13.69;54.25;100575.34;7397571;19;20022;-66
2022/04/25 11:52:34;;;;;;;5.25;4.30;;;;;;;13.84;53.62;100573.06;7395645;19;20018;-65
2022/04/25 11:55:03;;;;;;;6.15;4.43;;;;;;;14.07;53.49;100566.88;7395446;19;20046;-67